Time;durP1;ratioP1;P1;durP2;ratioP2;P2;SDS_P1;SDS_P2;PMS_P1;PMS_P2;Temp;Humidity;BMP_temperature;BMP_pressure;BME280_temperature;BME280_humidity;BME280_pressure;Samples;Min_cycle;Max_cycle;Signal;HPM_P1;HPM_P2
2024/04/16 00:01:06;;;;;;;1.35;0.63;;;;;;;;;;4951178;29;20526;-77
2024/04/16 00:03:37;;;;;;;0.68;0.68;;;;;;;;;;4948934;29;20019;-76
2024/04/16 00:06:07;;;;;;;1.00;0.70;;;;;;;;;;4974552;28;20037;-76
2024/04/16 00:08:38;;;;;;;2.50;0.70;;;;;;;;;;4951584;29;20029;-76
2024/04/16 00:11:09;;;;;;;5.03;0.85;;;;;;;;;;4951731;29;20009;-76
2024/04/16 00:13:39;;;;;;;0.98;0.63;;;;;;;;;;4952171;29;20045;-76
2024/04/16 00:16:28;;;;;;;2.75;0.43;;;;;;;;;;4974426;28;20005;-76
2024/04/16 00:19:00;;;;;;;2.47;0.70;;;;;;;;;;4973563;28;20033;-76
2024/04/16 00:21:32;;;;;;;1.10;0.60;;;;;;;;;;4974723;28;20474;-76
2024/04/16 00:24:02;;;;;;;2.80;0.70;;;;;;;;;;4951976;29;20049;-76
2024/04/16 00:26:32;;;;;;;0.55;0.50;;;;;;;;;;4951339;29;20030;-76
2024/04/16 00:29:05;;;;;;;1.85;0.50;;;;;;;;;;4951627;29;20041;-76
2024/04/16 00:31:35;;;;;;;0.45;0.45;;;;;;;;;;4951410;29;20037;-76
2024/04/16 00:34:07;;;;;;;1.88;0.52;;;;;;;;;;4951531;29;20044;-76
2024/04/16 00:36:37;;;;;;;3.97;0.60;;;;;;;;;;4952083;28;20651;-76
2024/04/16 00:39:12;;;;;;;3.22;0.68;;;;;;;;;;4950846;29;20033;-76
2024/04/16 00:41:42;;;;;;;4.50;0.63;;;;;;;;;;4950054;28;20045;-76
2024/04/16 00:44:13;;;;;;;1.77;0.70;;;;;;;;;;4951395;29;20052;-75
2024/04/16 00:46:43;;;;;;;8.20;0.75;;;;;;;;;;4950767;28;20033;-76
2024/04/16 00:49:14;;;;;;;0.93;0.60;;;;;;;;;;4950578;29;20468;-76
2024/04/16 00:51:45;;;;;;;0.80;0.60;;;;;;;;;;4950173;29;20016;-76
2024/04/16 00:54:16;;;;;;;1.20;0.65;;;;;;;;;;4950404;29;20053;-76
2024/04/16 00:56:47;;;;;;;5.70;0.75;;;;;;;;;;4949489;29;20053;-75
2024/04/16 00:59:20;;;;;;;3.85;0.63;;;;;;;;;;4951306;29;20041;-76
2024/04/16 01:01:54;;;;;;;0.57;0.57;;;;;;;;;;4951443;29;20386;-76
2024/04/16 01:04:26;;;;;;;4.22;0.73;;;;;;;;;;4950588;29;20796;-76
2024/04/16 01:06:57;;;;;;;1.77;0.57;;;;;;;;;;4950790;29;20034;-76
2024/04/16 01:09:27;;;;;;;4.50;0.80;;;;;;;;;;4950770;29;20045;-76
2024/04/16 01:11:59;;;;;;;2.63;0.88;;;;;;;;;;4951155;29;20453;-75
2024/04/16 01:14:30;;;;;;;0.60;0.50;;;;;;;;;;4951004;29;20033;-75
2024/04/16 01:17:00;;;;;;;4.38;1.00;;;;;;;;;;4950810;29;20029;-76
2024/04/16 01:19:31;;;;;;;4.38;0.63;;;;;;;;;;4950685;29;20518;-75
2024/04/16 01:22:02;;;;;;;1.98;0.63;;;;;;;;;;4951147;29;20038;-76
2024/04/16 01:24:32;;;;;;;2.28;0.70;;;;;;;;;;4951824;28;20033;-76
2024/04/16 01:27:02;;;;;;;3.08;0.70;;;;;;;;;;4950971;29;20535;-76
2024/04/16 01:29:32;;;;;;;2.63;0.70;;;;;;;;;;4950326;29;20386;-76
2024/04/16 01:32:04;;;;;;;0.63;0.63;;;;;;;;;;4950860;29;20005;-75
2024/04/16 01:34:34;;;;;;;8.27;0.60;;;;;;;;;;4950954;29;20038;-75
2024/04/16 01:37:05;;;;;;;1.85;0.60;;;;;;;;;;4950512;28;20494;-75
2024/04/16 01:39:35;;;;;;;3.30;0.55;;;;;;;;;;4950467;29;20375;-77
2024/04/16 01:42:07;;;;;;;1.20;0.60;;;;;;;;;;4950105;29;20481;-75
2024/04/16 01:44:38;;;;;;;1.75;0.60;;;;;;;;;;4950497;29;20116;-75
2024/04/16 01:47:08;;;;;;;3.03;0.38;;;;;;;;;;4951583;28;20037;-75
2024/04/16 01:49:39;;;;;;;1.95;0.57;;;;;;;;;;4951425;29;20392;-75
2024/04/16 01:52:10;;;;;;;0.63;0.60;;;;;;;;;;4973385;28;20006;-76
2024/04/16 01:54:41;;;;;;;0.52;0.52;;;;;;;;;;4950196;29;20508;-75
2024/04/16 01:57:11;;;;;;;2.80;0.70;;;;;;;;;;4950414;28;20033;-76
2024/04/16 01:59:42;;;;;;;2.28;0.52;;;;;;;;;;4972627;28;20486;-76
2024/04/16 02:02:12;;;;;;;0.95;0.50;;;;;;;;;;4951233;28;20045;-75
2024/04/16 02:04:43;;;;;;;3.03;0.70;;;;;;;;;;4950175;29;20041;-75
2024/04/16 02:07:14;;;;;;;2.38;0.50;;;;;;;;;;4949674;29;20041;-76
2024/04/16 02:09:47;;;;;;;2.60;0.47;;;;;;;;;;4950879;29;20033;-75
2024/04/16 02:12:17;;;;;;;1.67;0.43;;;;;;;;;;4950473;29;20005;-75
2024/04/16 02:14:51;;;;;;;1.15;0.50;;;;;;;;;;4949840;29;20033;-75
2024/04/16 02:17:23;;;;;;;1.58;0.60;;;;;;;;;;4949938;29;20016;-75
2024/04/16 02:19:54;;;;;;;0.85;0.60;;;;;;;;;;4950232;29;20033;-75
2024/04/16 02:22:24;;;;;;;1.10;0.40;;;;;;;;;;4950466;29;20015;-75
2024/04/16 02:24:55;;;;;;;2.47;0.60;;;;;;;;;;4950287;29;20042;-75
2024/04/16 02:27:26;;;;;;;1.80;0.63;;;;;;;;;;4950051;29;20020;-76
2024/04/16 02:29:56;;;;;;;2.13;0.40;;;;;;;;;;4973676;28;20663;-75
2024/04/16 02:32:26;;;;;;;0.85;0.60;;;;;;;;;;4950403;29;20341;-75
2024/04/16 02:34:57;;;;;;;0.40;0.40;;;;;;;;;;4948678;29;20006;-75
2024/04/16 02:37:28;;;;;;;2.15;0.40;;;;;;;;;;4973798;28;20453;-75
2024/04/16 02:39:58;;;;;;;1.17;0.60;;;;;;;;;;4972765;28;20015;-74
2024/04/16 02:42:30;;;;;;;0.60;0.50;;;;;;;;;;4949859;29;20785;-76
2024/04/16 02:45:01;;;;;;;3.17;0.80;;;;;;;;;;4950210;29;20373;-76
2024/04/16 02:47:32;;;;;;;0.90;0.60;;;;;;;;;;4949702;28;20009;-75
2024/04/16 02:50:03;;;;;;;1.20;0.70;;;;;;;;;;4950278;29;20041;-76
2024/04/16 02:52:36;;;;;;;1.55;0.50;;;;;;;;;;4950524;29;20009;-76
2024/04/16 02:55:08;;;;;;;0.98;0.57;;;;;;;;;;4950913;29;20041;-76
2024/04/16 02:57:42;;;;;;;1.27;0.50;;;;;;;;;;4972961;28;20041;-75
2024/04/16 03:00:12;;;;;;;0.52;0.52;;;;;;;;;;4951163;29;20033;-75
2024/04/16 03:02:43;;;;;;;1.63;0.60;;;;;;;;;;4950332;29;20034;-75
2024/04/16 03:05:14;;;;;;;1.15;0.50;;;;;;;;;;4972512;28;20474;-75
2024/04/16 03:07:50;;;;;;;2.08;0.55;;;;;;;;;;4950345;29;20375;-75
2024/04/16 03:10:20;;;;;;;1.13;0.45;;;;;;;;;;4949891;29;20016;-75
2024/04/16 03:12:54;;;;;;;1.17;0.52;;;;;;;;;;4950009;29;20037;-75
2024/04/16 03:15:25;;;;;;;1.20;0.40;;;;;;;;;;4949816;29;20056;-74
2024/04/16 03:17:56;;;;;;;5.18;0.70;;;;;;;;;;4948892;29;20037;-74
2024/04/16 03:20:27;;;;;;;2.22;0.57;;;;;;;;;;4949372;29;20033;-75
2024/04/16 03:22:57;;;;;;;3.25;0.55;;;;;;;;;;4949461;29;20037;-75
2024/04/16 03:25:27;;;;;;;1.23;0.40;;;;;;;;;;4948672;29;20499;-74
2024/04/16 03:27:58;;;;;;;3.53;0.45;;;;;;;;;;4949323;29;20045;-74
2024/04/16 03:30:29;;;;;;;0.30;0.30;;;;;;;;;;4949489;29;20038;-74
2024/04/16 03:32:59;;;;;;;4.13;0.50;;;;;;;;;;4949121;29;20016;-75
2024/04/16 03:35:29;;;;;;;0.22;0.22;;;;;;;;;;4949280;29;20465;-75
2024/04/16 03:37:59;;;;;;;0.70;0.40;;;;;;;;;;4972669;28;20005;-74
2024/04/16 03:40:30;;;;;;;3.92;0.38;;;;;;;;;;4949081;29;20029;-75
2024/04/16 03:43:02;;;;;;;0.70;0.30;;;;;;;;;;4948951;29;20041;-75
2024/04/16 03:45:32;;;;;;;3.00;0.32;;;;;;;;;;4949764;28;20071;-75
2024/04/16 03:48:02;;;;;;;1.15;0.28;;;;;;;;;;4948964;29;20600;-75
2024/04/16 03:50:33;;;;;;;0.63;0.40;;;;;;;;;;4950078;28;20030;-75
2024/04/16 03:53:04;;;;;;;0.30;0.30;;;;;;;;;;4948343;29;20016;-74
2024/04/16 03:55:36;;;;;;;0.45;0.22;;;;;;;;;;4948262;29;20052;-75
2024/04/16 03:58:08;;;;;;;4.00;0.38;;;;;;;;;;4948582;29;20615;-74
2024/04/16 04:03:28;;;;;;;2.45;0.50;;;;;;;;;;4948885;29;20478;-75
2024/04/16 04:05:59;;;;;;;0.30;0.30;;;;;;;;;;4971862;28;20006;-74
2024/04/16 04:08:29;;;;;;;0.20;0.20;;;;;;;;;;4948212;29;20041;-74
2024/04/16 04:11:00;;;;;;;0.82;0.17;;;;;;;;;;4948000;29;20029;-75
2024/04/16 04:13:31;;;;;;;2.38;0.40;;;;;;;;;;4949168;29;20393;-75
2024/04/16 04:16:01;;;;;;;0.32;0.32;;;;;;;;;;4972179;28;20006;-74
2024/04/16 04:18:31;;;;;;;1.63;0.35;;;;;;;;;;4953117;28;20506;-73
2024/04/16 04:21:02;;;;;;;2.20;0.30;;;;;;;;;;4952213;29;20038;-75
2024/04/16 04:23:34;;;;;;;3.65;0.32;;;;;;;;;;4951960;29;20533;-74
2024/04/16 04:26:05;;;;;;;2.92;0.32;;;;;;;;;;4974117;28;20015;-75
2024/04/16 04:28:35;;;;;;;2.70;0.50;;;;;;;;;;4950830;29;20041;-75
2024/04/16 04:31:16;;;;;;;1.15;0.40;;;;;;;;;;4951619;28;20453;-74
2024/04/16 04:33:48;;;;;;;0.47;0.30;;;;;;;;;;4951462;29;20005;-74
2024/04/16 04:36:18;;;;;;;0.88;0.50;;;;;;;;;;4951551;29;20033;-74
2024/04/16 04:38:49;;;;;;;6.88;0.68;;;;;;;;;;4951354;29;20041;-75
2024/04/16 04:41:19;;;;;;;5.25;0.35;;;;;;;;;;4952366;28;20667;-74
2024/04/16 04:43:54;;;;;;;2.72;0.50;;;;;;;;;;4951427;29;20388;-74
2024/04/16 04:46:24;;;;;;;4.47;0.65;;;;;;;;;;4950764;28;20367;-75
2024/04/16 04:48:54;;;;;;;3.00;0.50;;;;;;;;;;4952029;28;20029;-74
2024/04/16 04:51:26;;;;;;;5.88;0.50;;;;;;;;;;4950963;29;20045;-74
2024/04/16 04:53:56;;;;;;;3.95;0.50;;;;;;;;;;4951616;29;20034;-75
2024/04/16 04:56:28;;;;;;;3.08;0.65;;;;;;;;;;4973900;28;20099;-74
2024/04/16 04:58:58;;;;;;;11.55;0.60;;;;;;;;;;4951071;29;20041;-74
2024/04/16 05:01:29;;;;;;;2.67;0.50;;;;;;;;;;4950882;29;20011;-75
2024/04/16 05:04:00;;;;;;;5.45;0.45;;;;;;;;;;4951282;29;20110;-74
2024/04/16 05:06:30;;;;;;;1.45;0.50;;;;;;;;;;4973730;28;20016;-74
2024/04/16 05:09:00;;;;;;;3.97;0.40;;;;;;;;;;4974164;28;20037;-74
2024/04/16 05:11:31;;;;;;;4.35;0.80;;;;;;;;;;4974960;28;20482;-75
2024/04/16 05:14:02;;;;;;;3.42;0.60;;;;;;;;;;4950783;29;20009;-74
2024/04/16 05:16:33;;;;;;;2.05;0.50;;;;;;;;;;4950467;29;20350;-75
2024/04/16 05:19:04;;;;;;;6.10;0.47;;;;;;;;;;4950913;29;20016;-74
2024/04/16 05:21:35;;;;;;;5.70;0.52;;;;;;;;;;4950726;29;20370;-75
2024/04/16 05:24:05;;;;;;;4.90;0.65;;;;;;;;;;4950695;29;20052;-74
2024/04/16 05:26:36;;;;;;;8.95;0.70;;;;;;;;;;4950435;28;20046;-74
2024/04/16 05:29:06;;;;;;;3.58;0.47;;;;;;;;;;4950204;29;20029;-74
2024/04/16 05:31:36;;;;;;;4.40;0.60;;;;;;;;;;4950218;29;20033;-74
2024/04/16 05:34:07;;;;;;;7.72;0.73;;;;;;;;;;4950158;29;20005;-73
2024/04/16 05:36:38;;;;;;;5.80;0.88;;;;;;;;;;4950831;29;20041;-74
2024/04/16 05:39:09;;;;;;;0.63;0.40;;;;;;;;;;4973637;28;20033;-74
2024/04/16 05:41:41;;;;;;;0.43;0.43;;;;;;;;;;4950386;29;20057;-74
2024/04/16 05:44:11;;;;;;;3.88;0.45;;;;;;;;;;4950995;29;20033;-74
2024/04/16 05:46:42;;;;;;;5.10;0.47;;;;;;;;;;4973039;28;20015;-75
2024/04/16 05:49:14;;;;;;;0.98;0.60;;;;;;;;;;4950921;28;20040;-74
2024/04/16 05:51:46;;;;;;;0.45;0.45;;;;;;;;;;4951021;28;20009;-74
2024/04/16 05:54:16;;;;;;;2.92;0.50;;;;;;;;;;4972732;28;20005;-74
2024/04/16 05:56:46;;;;;;;4.75;0.60;;;;;;;;;;4950496;29;20030;-75
2024/04/16 05:59:17;;;;;;;10.77;0.60;;;;;;;;;;4950550;29;20029;-74
2024/04/16 06:01:47;;;;;;;1.77;0.40;;;;;;;;;;4950685;29;20033;-74
2024/04/16 06:04:17;;;;;;;1.98;0.50;;;;;;;;;;4950086;29;20012;-75
2024/04/16 06:06:50;;;;;;;1.75;0.50;;;;;;;;;;4950125;29;20029;-73
2024/04/16 06:09:20;;;;;;;6.07;0.70;;;;;;;;;;4949728;29;20049;-74
2024/04/16 06:11:52;;;;;;;4.43;0.50;;;;;;;;;;4949828;29;20041;-74
2024/04/16 06:14:23;;;;;;;3.67;0.50;;;;;;;;;;4973208;28;20446;-75
2024/04/16 06:16:54;;;;;;;3.92;0.60;;;;;;;;;;4949649;28;20063;-75
2024/04/16 06:19:24;;;;;;;2.90;0.40;;;;;;;;;;4950277;29;20033;-75
2024/04/16 06:21:54;;;;;;;3.55;0.43;;;;;;;;;;4949925;29;20045;-75
2024/04/16 06:24:27;;;;;;;2.55;0.55;;;;;;;;;;4949783;29;20087;-73
2024/04/16 06:26:59;;;;;;;2.58;0.60;;;;;;;;;;4949343;29;20029;-74
2024/04/16 06:29:29;;;;;;;9.35;0.95;;;;;;;;;;4949788;29;20029;-74
2024/04/16 06:31:59;;;;;;;6.03;0.50;;;;;;;;;;4950279;29;20021;-74
2024/04/16 06:34:31;;;;;;;1.45;0.57;;;;;;;;;;4949905;29;20012;-74
2024/04/16 06:37:02;;;;;;;1.75;0.47;;;;;;;;;;4950148;29;20041;-75
2024/04/16 06:39:32;;;;;;;3.65;0.50;;;;;;;;;;4971585;28;20006;-75
2024/04/16 06:42:04;;;;;;;3.85;0.50;;;;;;;;;;4950539;29;20034;-75
2024/04/16 06:44:36;;;;;;;5.00;0.65;;;;;;;;;;4949842;29;20354;-74
2024/04/16 06:47:06;;;;;;;9.65;0.90;;;;;;;;;;4949281;28;20046;-75
2024/04/16 06:49:37;;;;;;;3.45;0.40;;;;;;;;;;4949718;29;20041;-74
2024/04/16 06:52:08;;;;;;;2.97;0.47;;;;;;;;;;4949695;29;20041;-75
2024/04/16 06:54:40;;;;;;;8.32;0.90;;;;;;;;;;4949772;29;20064;-74
2024/04/16 06:57:11;;;;;;;3.22;0.57;;;;;;;;;;4972690;28;20016;-74
2024/04/16 06:59:41;;;;;;;9.38;0.60;;;;;;;;;;4949710;29;20037;-74
2024/04/16 07:02:11;;;;;;;6.90;0.68;;;;;;;;;;4949574;29;20417;-74
2024/04/16 07:04:43;;;;;;;4.28;1.67;;;;;;;;;;4949993;28;20539;-74
2024/04/16 07:07:15;;;;;;;1.75;0.63;;;;;;;;;;4972931;28;20641;-74
2024/04/16 07:09:45;;;;;;;0.77;0.40;;;;;;;;;;4949234;29;20037;-74
2024/04/16 07:12:15;;;;;;;3.47;0.40;;;;;;;;;;4972113;28;20009;-74
2024/04/16 07:14:46;;;;;;;8.13;0.98;;;;;;;;;;4950459;28;20056;-75
2024/04/16 07:17:16;;;;;;;4.20;0.32;;;;;;;;;;4949580;29;20482;-75
2024/04/16 07:19:49;;;;;;;1.50;0.40;;;;;;;;;;4972437;28;20033;-75
2024/04/16 07:22:19;;;;;;;0.85;0.38;;;;;;;;;;4950179;29;20033;-74
2024/04/16 07:24:50;;;;;;;3.75;0.47;;;;;;;;;;4950083;29;20481;-74
2024/04/16 07:27:22;;;;;;;1.70;0.70;;;;;;;;;;4948998;29;20029;-74
2024/04/16 07:29:52;;;;;;;1.17;0.30;;;;;;;;;;4948566;29;20033;-75
2024/04/16 07:32:25;;;;;;;3.97;0.40;;;;;;;;;;4972794;28;20033;-75
2024/04/16 07:34:55;;;;;;;6.05;0.60;;;;;;;;;;4972304;28;20345;-74
2024/04/16 07:37:27;;;;;;;0.73;0.30;;;;;;;;;;4949318;29;20733;-74
2024/04/16 07:39:57;;;;;;;2.05;0.47;;;;;;;;;;4949443;29;20039;-74
2024/04/16 07:42:27;;;;;;;2.75;0.30;;;;;;;;;;4949063;29;20037;-74
2024/04/16 07:44:58;;;;;;;7.60;0.68;;;;;;;;;;4972075;28;20009;-74
2024/04/16 07:47:29;;;;;;;5.05;0.50;;;;;;;;;;4949052;28;20422;-74
2024/04/16 07:49:59;;;;;;;0.52;0.30;;;;;;;;;;4949276;28;20024;-74
2024/04/16 07:52:31;;;;;;;10.68;0.60;;;;;;;;;;4951499;29;20033;-75
2024/04/16 07:55:03;;;;;;;0.82;0.50;;;;;;;;;;4952044;29;21076;-74
2024/04/16 07:57:34;;;;;;;5.00;0.63;;;;;;;;;;4952072;29;20029;-74
2024/04/16 08:00:05;;;;;;;4.75;0.47;;;;;;;;;;4951402;29;20037;-75
2024/04/16 08:02:38;;;;;;;0.90;0.70;;;;;;;;;;4973775;28;20005;-74
2024/04/16 08:05:09;;;;;;;0.45;0.40;;;;;;;;;;4951230;29;20020;-74
2024/04/16 08:07:40;;;;;;;3.33;0.45;;;;;;;;;;4951871;29;20032;-74
2024/04/16 08:10:11;;;;;;;3.15;0.32;;;;;;;;;;4951685;29;20033;-75
2024/04/16 08:12:41;;;;;;;0.82;0.40;;;;;;;;;;4952528;29;20045;-74
2024/04/16 08:15:11;;;;;;;4.05;0.50;;;;;;;;;;4952848;28;20009;-74
2024/04/16 08:17:42;;;;;;;3.50;0.40;;;;;;;;;;4951160;29;20506;-73
2024/04/16 08:20:12;;;;;;;1.05;0.50;;;;;;;;;;4951265;29;20016;-74
2024/04/16 08:22:44;;;;;;;6.72;0.50;;;;;;;;;;4951356;29;20016;-74
2024/04/16 08:25:15;;;;;;;2.88;0.50;;;;;;;;;;4948933;29;20009;-75
2024/04/16 08:27:46;;;;;;;0.93;0.40;;;;;;;;;;4973735;28;20379;-75
2024/04/16 08:30:16;;;;;;;2.05;0.50;;;;;;;;;;4951224;29;20367;-75
2024/04/16 08:32:47;;;;;;;5.57;0.70;;;;;;;;;;4951476;29;20041;-74
2024/04/16 08:35:26;;;;;;;0.90;0.30;;;;;;;;;;4951362;29;20045;-75
2024/04/16 08:37:58;;;;;;;1.63;0.45;;;;;;;;;;4951497;29;20039;-74
2024/04/16 08:40:29;;;;;;;0.20;0.20;;;;;;;;;;4951041;29;20041;-74
2024/04/16 08:42:59;;;;;;;2.25;0.50;;;;;;;;;;4951318;29;20033;-75
2024/04/16 08:45:30;;;;;;;0.95;0.32;;;;;;;;;;4951531;28;20029;-74
2024/04/16 08:48:02;;;;;;;1.73;0.40;;;;;;;;;;4951421;29;20042;-75
2024/04/16 08:50:34;;;;;;;2.78;0.57;;;;;;;;;;4950982;29;20030;-74
2024/04/16 08:53:08;;;;;;;2.00;0.38;;;;;;;;;;4951662;28;20037;-74
2024/04/16 08:55:41;;;;;;;3.00;1.20;;;;;;;;;;4950818;29;20034;-75
2024/04/16 08:58:12;;;;;;;2.42;0.30;;;;;;;;;;4951843;29;20501;-75
2024/04/16 09:00:44;;;;;;;1.20;0.30;;;;;;;;;;4951243;29;20033;-74
2024/04/16 09:03:16;;;;;;;6.80;0.70;;;;;;;;;;4950384;29;20037;-76
2024/04/16 09:05:47;;;;;;;2.47;0.40;;;;;;;;;;4951088;29;20046;-74
2024/04/16 09:08:24;;;;;;;3.78;0.60;;;;;;;;;;4951654;29;20033;-75
2024/04/16 09:10:55;;;;;;;0.55;0.50;;;;;;;;;;4950977;29;20034;-74
2024/04/16 09:13:25;;;;;;;3.60;0.50;;;;;;;;;;4950918;29;20040;-74
2024/04/16 09:15:58;;;;;;;2.65;0.50;;;;;;;;;;4950281;29;20016;-74
2024/04/16 09:18:29;;;;;;;2.55;1.08;;;;;;;;;;4974003;28;20005;-75
2024/04/16 09:21:00;;;;;;;4.90;0.50;;;;;;;;;;4951007;29;20394;-75
2024/04/16 09:23:32;;;;;;;5.00;0.90;;;;;;;;;;4951084;29;20041;-75
2024/04/16 09:26:03;;;;;;;2.03;0.70;;;;;;;;;;4950505;29;20041;-76
2024/04/16 09:28:33;;;;;;;5.03;0.75;;;;;;;;;;4950214;29;20044;-79
2024/04/16 09:31:04;;;;;;;0.80;0.55;;;;;;;;;;4973994;28;20029;-77
2024/04/16 09:33:34;;;;;;;3.88;0.60;;;;;;;;;;4951786;29;20030;-77
2024/04/16 09:36:14;;;;;;;9.15;0.70;;;;;;;;;;4951065;29;20009;-77
2024/04/16 09:38:46;;;;;;;0.43;0.43;;;;;;;;;;4951188;29;20029;-76
2024/04/16 09:41:16;;;;;;;0.88;0.55;;;;;;;;;;4950995;29;20037;-76
2024/04/16 09:43:47;;;;;;;2.47;0.60;;;;;;;;;;4951240;29;20041;-76
2024/04/16 09:46:20;;;;;;;4.13;0.75;;;;;;;;;;4949698;28;20019;-76
2024/04/16 09:48:52;;;;;;;5.88;0.70;;;;;;;;;;4950710;29;20539;-76
2024/04/16 09:51:25;;;;;;;3.92;0.47;;;;;;;;;;4950526;29;20520;-75
2024/04/16 09:53:57;;;;;;;1.15;0.50;;;;;;;;;;4950285;29;20045;-76
2024/04/16 09:56:33;;;;;;;2.40;0.70;;;;;;;;;;4950378;29;20006;-76
2024/04/16 09:59:08;;;;;;;1.75;0.50;;;;;;;;;;4950154;29;20486;-77
2024/04/16 10:01:39;;;;;;;;;;;;;;;;;;4974953;28;20049;-76
2024/04/16 10:04:11;;;;;;;5.82;1.02;;;;;;;;;;4950091;29;19960;-76
2024/04/16 10:06:42;;;;;;;0.77;0.68;;;;;;;;;;4950446;29;20381;-77
2024/04/16 10:09:17;;;;;;;1.80;0.68;;;;;;;;;;4950674;29;20029;-76
2024/04/16 10:11:49;;;;;;;1.00;0.70;;;;;;;;;;4950247;29;20021;-76
2024/04/16 10:14:19;;;;;;;2.30;0.70;;;;;;;;;;4948878;28;20045;-76
2024/04/16 10:16:53;;;;;;;3.85;0.80;;;;;;;;;;4950535;29;20005;-76
2024/04/16 10:19:28;;;;;;;2.72;0.60;;;;;;;;;;4972665;28;20020;-75
2024/04/16 10:22:02;;;;;;;2.83;0.60;;;;;;;;;;4950997;29;20033;-76
2024/04/16 10:24:32;;;;;;;3.47;0.50;;;;;;;;;;4949431;29;20030;-76
2024/04/16 10:27:02;;;;;;;0.63;0.55;;;;;;;;;;4949902;29;20005;-84
2024/04/16 10:29:37;;;;;;;3.65;1.27;;;;;;;;;;4950064;29;20033;-76
2024/04/16 10:32:10;;;;;;;;;;;;;;;;;;4998843;28;20012;-75
2024/04/16 10:34:43;;;;;;;0.47;0.45;;;;;;;;;;4980932;28;19963;-75
2024/04/16 10:37:19;;;;;;;1.80;0.60;;;;;;;;;;4979305;28;20009;-76
2024/04/16 10:39:57;;;;;;;3.85;0.55;;;;;;;;;;4980286;28;20029;-75
2024/04/16 10:42:30;;;;;;;4.40;0.75;;;;;;;;;;4979903;28;20150;-75
2024/04/16 10:45:01;;;;;;;3.50;0.73;;;;;;;;;;4980341;28;20033;-75
2024/04/16 10:47:32;;;;;;;3.00;1.75;;;;;;;;;;4977919;28;20033;-76
2024/04/16 10:50:04;;;;;;;0.47;0.47;;;;;;;;;;4980131;28;20055;-79
2024/04/16 10:52:35;;;;;;;0.43;0.43;;;;;;;;;;4980311;28;20033;-76
2024/04/16 10:55:05;;;;;;;0.88;0.63;;;;;;;;;;4977910;28;20004;-77
2024/04/16 10:57:44;;;;;;;1.70;0.50;;;;;;;;;;4977838;28;20040;-75
2024/04/16 11:00:16;;;;;;;0.98;0.45;;;;;;;;;;4980624;28;20028;-76
2024/04/16 11:02:47;;;;;;;1.42;0.70;;;;;;;;;;4980141;28;20566;-75
2024/04/16 11:05:21;;;;;;;0.75;0.63;;;;;;;;;;4979941;28;20032;-76
2024/04/16 11:07:53;;;;;;;3.10;0.57;;;;;;;;;;4979230;28;20749;-75
2024/04/16 11:10:24;;;;;;;1.02;0.75;;;;;;;;;;4978321;28;20049;-75
2024/04/16 11:12:55;;;;;;;0.77;0.77;;;;;;;;;;4979341;28;20033;-75
2024/04/16 11:15:33;;;;;;;0.75;0.73;;;;;;;;;;4977659;28;20745;-77
2024/04/16 11:18:03;;;;;;;4.03;0.60;;;;;;;;;;4979596;28;20015;-77
2024/04/16 11:20:34;;;;;;;2.45;0.68;;;;;;;;;;4979039;28;20131;-76
2024/04/16 11:23:06;;;;;;;0.63;0.63;;;;;;;;;;4978382;28;20500;-77
2024/04/16 11:25:46;;;;;;;1.23;0.70;;;;;;;;;;4981707;28;20001;-79
2024/04/16 11:28:17;;;;;;;1.38;1.10;;;;;;;;;;4985223;28;20004;-74
2024/04/16 11:30:55;;;;;;;1.10;0.60;;;;;;;;;;4986002;28;20379;-77
2024/04/16 11:33:27;;;;;;;3.47;1.10;;;;;;;;;;4986021;28;20537;-75
2024/04/16 11:36:08;;;;;;;0.68;0.68;;;;;;;;;;4984191;28;20795;-75
2024/04/16 11:38:43;;;;;;;2.63;0.75;;;;;;;;;;4984674;28;20029;-76
2024/04/16 11:41:17;;;;;;;1.02;0.65;;;;;;;;;;4982758;28;20015;-75
2024/04/16 11:43:50;;;;;;;1.70;0.70;;;;;;;;;;4983675;28;20036;-75
2024/04/16 11:46:21;;;;;;;1.85;0.70;;;;;;;;;;4986348;28;20028;-75
2024/04/16 11:48:52;;;;;;;1.67;0.70;;;;;;;;;;4985432;28;20441;-75
2024/04/16 11:51:23;;;;;;;2.60;0.88;;;;;;;;;;4984081;28;20024;-75
2024/04/16 11:53:53;;;;;;;4.28;0.80;;;;;;;;;;4985413;28;20049;-75
2024/04/16 11:56:23;;;;;;;1.35;0.77;;;;;;;;;;4984976;28;20005;-76
2024/04/16 11:58:54;;;;;;;0.55;0.55;;;;;;;;;;4985461;28;20032;-76
2024/04/16 12:01:24;;;;;;;0.85;0.70;;;;;;;;;;4984735;28;20564;-75
2024/04/16 12:03:56;;;;;;;4.47;0.90;;;;;;;;;;4985793;28;20033;-76
2024/04/16 12:06:27;;;;;;;4.70;0.63;;;;;;;;;;4985281;28;20033;-76
2024/04/16 12:08:58;;;;;;;8.68;3.05;;;;;;;;;;4983668;28;20005;-75
2024/04/16 12:11:30;;;;;;;11.65;5.55;;;;;;;;;;4985096;28;20033;-75
2024/04/16 12:14:01;;;;;;;4.55;1.70;;;;;;;;;;4983682;28;20334;-75
2024/04/16 12:16:33;;;;;;;2.55;0.80;;;;;;;;;;4983320;28;20015;-74
2024/04/16 12:19:04;;;;;;;1.13;0.70;;;;;;;;;;4984645;28;20033;-76
2024/04/16 12:21:36;;;;;;;0.70;0.70;;;;;;;;;;4984767;28;20032;-75
2024/04/16 12:24:07;;;;;;;5.05;0.70;;;;;;;;;;4985123;28;20028;-75
2024/04/16 12:26:39;;;;;;;1.25;0.80;;;;;;;;;;4984692;28;20032;-76
2024/04/16 12:29:10;;;;;;;3.67;0.80;;;;;;;;;;4984515;28;20029;-74
2024/04/16 12:31:40;;;;;;;3.47;0.80;;;;;;;;;;4984660;28;20039;-74
2024/04/16 12:34:11;;;;;;;1.63;0.45;;;;;;;;;;4985287;28;20374;-73
2024/04/16 12:36:42;;;;;;;0.40;0.40;;;;;;;;;;4982110;28;20474;-74
2024/04/16 12:39:13;;;;;;;3.35;0.70;;;;;;;;;;4981330;28;20040;-74
2024/04/16 12:41:43;;;;;;;0.60;0.60;;;;;;;;;;4979290;28;20641;-75
2024/04/16 12:44:16;;;;;;;0.55;0.55;;;;;;;;;;4981194;28;20052;-76
2024/04/16 12:46:47;;;;;;;0.45;0.45;;;;;;;;;;4980847;28;20048;-75
2024/04/16 12:49:17;;;;;;;1.98;0.45;;;;;;;;;;4981026;28;20033;-76
2024/04/16 12:51:47;;;;;;;7.35;1.15;;;;;;;;;;4981281;28;20402;-78
2024/04/16 12:54:19;;;;;;;3.83;0.90;;;;;;;;;;4979564;28;20000;-76
2024/04/16 12:56:50;;;;;;;4.80;0.93;;;;;;;;;;4980991;28;20457;-76
2024/04/16 12:59:23;;;;;;;4.72;1.02;;;;;;;;;;4981018;28;20044;-76
2024/04/16 13:01:55;;;;;;;4.00;1.25;;;;;;;;;;4979523;28;20015;-76
2024/04/16 13:04:25;;;;;;;8.48;1.52;;;;;;;;;;4980662;28;20034;-76
2024/04/16 13:06:55;;;;;;;7.47;1.52;;;;;;;;;;4981110;28;20041;-76
2024/04/16 13:09:26;;;;;;;3.10;1.13;;;;;;;;;;4981012;28;20034;-76
2024/04/16 13:11:57;;;;;;;2.08;1.15;;;;;;;;;;4979390;28;20029;-75
2024/04/16 13:14:27;;;;;;;2.92;1.15;;;;;;;;;;4980895;28;20396;-76
2024/04/16 13:16:58;;;;;;;4.97;1.50;;;;;;;;;;4981774;28;20052;-75
2024/04/16 13:19:29;;;;;;;7.45;1.50;;;;;;;;;;4980929;28;20032;-76
2024/04/16 13:22:01;;;;;;;3.63;1.30;;;;;;;;;;4980688;28;20036;-76
2024/04/16 13:24:31;;;;;;;1.50;0.80;;;;;;;;;;4980540;28;20032;-77
2024/04/16 13:27:02;;;;;;;0.80;0.60;;;;;;;;;;4980776;28;20005;-80
2024/04/16 13:29:34;;;;;;;2.08;0.65;;;;;;;;;;4980572;28;20036;-75
2024/04/16 13:32:05;;;;;;;1.60;0.60;;;;;;;;;;4980874;28;20540;-76
2024/04/16 13:34:36;;;;;;;1.45;0.80;;;;;;;;;;4980603;28;20004;-75
2024/04/16 13:37:08;;;;;;;1.67;0.95;;;;;;;;;;4979904;28;20036;-75
2024/04/16 13:39:39;;;;;;;1.88;1.30;;;;;;;;;;4979852;28;20004;-76
2024/04/16 13:42:11;;;;;;;3.78;2.20;;;;;;;;;;4980508;28;20485;-76
2024/04/16 13:44:42;;;;;;;2.00;0.95;;;;;;;;;;4980567;28;20366;-81
2024/04/16 13:47:12;;;;;;;1.48;0.90;;;;;;;;;;4980797;28;20033;-76
2024/04/16 13:49:43;;;;;;;2.22;1.00;;;;;;;;;;4980030;28;20036;-76
2024/04/16 13:52:13;;;;;;;0.65;0.65;;;;;;;;;;4981046;28;20040;-75
2024/04/16 13:54:45;;;;;;;1.50;0.60;;;;;;;;;;4982015;28;20396;-82
2024/04/16 13:57:15;;;;;;;1.10;0.70;;;;;;;;;;4981002;28;20004;-76
2024/04/16 13:59:45;;;;;;;0.70;0.60;;;;;;;;;;4955823;28;20477;-76
2024/04/16 14:02:16;;;;;;;0.55;0.55;;;;;;;;;;4982325;28;20038;-76
2024/04/16 14:04:47;;;;;;;0.95;0.63;;;;;;;;;;4981562;28;20370;-76
2024/04/16 14:07:17;;;;;;;1.50;0.80;;;;;;;;;;4980515;28;20036;-79
2024/04/16 14:09:48;;;;;;;2.80;1.00;;;;;;;;;;4980931;28;20044;-76
2024/04/16 14:12:22;;;;;;;1.40;0.80;;;;;;;;;;4980509;28;20342;-76
2024/04/16 14:14:52;;;;;;;1.10;0.73;;;;;;;;;;4981036;28;20029;-76
2024/04/16 14:17:22;;;;;;;1.38;0.60;;;;;;;;;;4981574;28;20041;-77
2024/04/16 14:19:53;;;;;;;3.45;0.95;;;;;;;;;;4980825;28;20047;-76
2024/04/16 14:22:24;;;;;;;5.25;0.90;;;;;;;;;;4980195;28;20005;-75
2024/04/16 14:24:55;;;;;;;3.13;0.90;;;;;;;;;;4980052;28;20028;-76
2024/04/16 14:27:27;;;;;;;1.73;0.98;;;;;;;;;;4978815;28;20015;-76
2024/04/16 14:29:58;;;;;;;1.50;0.90;;;;;;;;;;4980497;28;20366;-76
2024/04/16 14:32:29;;;;;;;3.10;1.20;;;;;;;;;;4980359;28;20063;-75
2024/04/16 14:35:00;;;;;;;4.72;1.65;;;;;;;;;;4980476;28;20036;-76
2024/04/16 14:37:32;;;;;;;2.83;1.20;;;;;;;;;;4981706;28;20032;-76
2024/04/16 14:40:04;;;;;;;4.55;2.20;;;;;;;;;;4981567;28;20024;-76
2024/04/16 14:42:34;;;;;;;12.35;3.25;;;;;;;;;;4979803;28;20135;-75
2024/04/16 14:45:05;;;;;;;5.10;2.25;;;;;;;;;;4980622;28;20033;-77
2024/04/16 14:47:36;;;;;;;3.97;2.70;;;;;;;;;;4979483;28;20072;-76
2024/04/16 14:50:08;;;;;;;6.18;2.08;;;;;;;;;;4979513;28;20032;-76
2024/04/16 14:52:43;;;;;;;8.27;3.00;;;;;;;;;;4977210;28;20044;-75
2024/04/16 14:55:13;;;;;;;4.40;2.00;;;;;;;;;;4980275;28;20028;-77
2024/04/16 14:57:46;;;;;;;3.83;1.95;;;;;;;;;;4979665;28;20101;-74
2024/04/16 15:00:17;;;;;;;6.10;2.10;;;;;;;;;;4978858;28;20667;-76
2024/04/16 15:02:47;;;;;;;8.13;2.10;;;;;;;;;;4979710;28;20044;-75
2024/04/16 15:05:18;;;;;;;5.07;2.03;;;;;;;;;;4979389;28;20036;-76
2024/04/16 15:07:48;;;;;;;5.68;2.00;;;;;;;;;;4978080;28;20005;-76
2024/04/16 15:10:22;;;;;;;4.97;2.38;;;;;;;;;;4979851;28;20560;-75